Time;durP1;ratioP1;P1;durP2;ratioP2;P2;SDS_P1;SDS_P2;PMS_P1;PMS_P2;Temp;Humidity;BMP_temperature;BMP_pressure;BME280_temperature;BME280_humidity;BME280_pressure;Samples;Min_cycle;Max_cycle;Signal;HPM_P1;HPM_P2
2022/09/17 00:00:51;;;;;;;14.68;2.10;;;10.70;99.90;;;;;;4947630;29;20058;-94
2022/09/17 00:03:16;;;;;;;14.77;2.00;;;10.70;99.90;;;;;;4946305;29;20060;-91
2022/09/17 00:05:43;;;;;;;12.38;2.50;;;10.60;99.90;;;;;;4943783;29;20048;-92
2022/09/17 00:08:13;;;;;;;14.63;1.90;;;10.60;99.90;;;;;;4948892;29;20039;-94
2022/09/17 00:10:41;;;;;;;15.52;2.17;;;10.60;99.90;;;;;;4951342;29;20039;-92
2022/09/17 00:13:08;;;;;;;13.13;1.95;;;10.60;99.90;;;;;;4953356;29;20043;-93
2022/09/17 00:15:42;;;;;;;14.60;1.55;;;10.60;99.90;;;;;;4950413;29;20043;-92
2022/09/17 00:18:09;;;;;;;12.93;2.17;;;10.60;99.90;;;;;;4947101;29;20118;-93
2022/09/17 00:20:43;;;;;;;20.00;2.70;;;10.60;99.90;;;;;;4936878;29;20506;-92
2022/09/17 00:23:11;;;;;;;10.70;1.70;;;10.60;99.90;;;;;;4952643;29;20047;-93
2022/09/17 00:25:42;;;;;;;19.25;2.45;;;10.60;99.90;;;;;;4952273;28;20417;-93
2022/09/17 00:28:09;;;;;;;11.05;2.03;;;10.60;99.90;;;;;;4933747;29;20047;-93
2022/09/17 00:30:37;;;;;;;15.13;2.08;;;10.50;99.90;;;;;;4933720;29;20385;-90
2022/09/17 00:33:03;;;;;;;20.95;2.60;;;10.60;99.90;;;;;;4952129;29;20122;-93
2022/09/17 00:35:28;;;;;;;12.65;1.88;;;10.60;99.90;;;;;;4950143;29;20118;-93
2022/09/17 00:37:54;;;;;;;18.15;2.33;;;10.60;99.90;;;;;;4953283;29;20863;-94
2022/09/17 00:40:20;;;;;;;15.57;1.50;;;10.60;99.90;;;;;;4954492;29;20051;-94
2022/09/17 00:42:46;;;;;;;7.68;1.67;;;10.70;99.90;;;;;;4947085;29;20118;-92
2022/09/17 00:45:12;;;;;;;9.05;1.23;;;10.80;99.90;;;;;;4937025;29;20127;-93
2022/09/17 00:47:54;;;;;;;8.88;1.42;;;10.80;99.90;;;;;;4951545;29;20050;-93
2022/09/17 00:50:40;;;;;;;5.32;1.02;;;10.90;99.90;;;;;;4949054;28;20039;-93
2022/09/17 00:53:19;;;;;;;9.02;1.17;;;10.90;99.90;;;;;;4932181;29;20102;-93
2022/09/17 00:55:50;;;;;;;9.80;1.23;;;10.90;99.90;;;;;;4952866;29;20492;-92
2022/09/17 00:58:19;;;;;;;8.95;1.15;;;10.80;99.90;;;;;;4953813;29;20046;-92
2022/09/17 01:00:45;;;;;;;12.80;1.50;;;10.80;99.90;;;;;;4945998;29;20039;-92
2022/09/17 01:03:12;;;;;;;11.10;1.02;;;10.80;99.90;;;;;;4948056;29;20079;-90
2022/09/17 01:05:46;;;;;;;8.15;1.20;;;10.70;99.90;;;;;;4945879;29;20047;-92
2022/09/17 01:08:53;;;;;;;12.38;1.27;;;10.70;99.90;;;;;;4948795;29;20134;-92
2022/09/17 01:11:43;;;;;;;9.15;0.98;;;10.70;99.90;;;;;;4942769;29;20039;-93
2022/09/17 01:14:47;;;;;;;5.95;0.95;;;10.60;99.90;;;;;;4930687;29;20373;-90
2022/09/17 01:17:43;;;;;;;6.18;1.15;;;10.60;99.90;;;;;;4927120;29;20051;-92
2022/09/17 01:20:35;;;;;;;7.88;1.33;;;10.60;99.90;;;;;;4942550;29;20077;-91
2022/09/17 01:23:10;;;;;;;11.02;1.50;;;10.60;99.90;;;;;;4950598;29;20043;-91
2022/09/17 01:26:26;;;;;;;6.68;1.25;;;10.50;99.90;;;;;;4951807;29;20054;-92
2022/09/17 01:29:14;;;;;;;14.57;1.50;;;10.40;99.90;;;;;;4949945;29;20484;-93
2022/09/17 01:31:47;;;;;;;12.73;2.00;;;10.40;99.90;;;;;;4934677;29;20678;-91
2022/09/17 01:34:34;;;;;;;13.18;1.55;;;10.40;99.90;;;;;;4951876;29;20093;-92
2022/09/17 01:37:28;;;;;;;12.27;1.90;;;10.40;99.90;;;;;;4944574;29;20110;-91
2022/09/17 01:40:17;;;;;;;7.50;2.33;;;10.30;99.90;;;;;;4934216;29;20053;-91
2022/09/17 01:42:53;;;;;;;13.90;1.48;;;10.30;99.90;;;;;;4928308;29;20055;-92
2022/09/17 01:45:26;;;;;;;13.88;1.95;;;10.20;99.90;;;;;;4947841;29;20043;-91
2022/09/17 01:48:01;;;;;;;9.38;1.83;;;10.20;99.90;;;;;;4951024;29;20078;-92
2022/09/17 01:50:32;;;;;;;17.02;1.58;;;10.10;99.90;;;;;;4947639;29;20101;-92
2022/09/17 01:52:59;;;;;;;8.88;1.55;;;10.40;99.90;;;;;;4950067;29;20131;-91
2022/09/17 01:55:29;;;;;;;12.10;1.80;;;10.00;99.90;;;;;;4949246;29;20103;-93
2022/09/17 01:58:16;;;;;;;11.52;1.50;;;10.00;99.90;;;;;;4945878;29;20102;-91
2022/09/17 02:00:50;;;;;;;10.35;1.50;;;10.00;99.90;;;;;;4949652;29;20142;-91
2022/09/17 02:03:29;;;;;;;10.57;1.52;;;9.90;99.90;;;;;;4949620;28;20106;-92
2022/09/17 02:06:04;;;;;;;11.52;1.00;;;10.00;99.90;;;;;;4950363;29;20051;-92
2022/09/17 02:08:36;;;;;;;12.55;1.73;;;10.00;99.90;;;;;;4950607;29;20391;-92
2022/09/17 02:11:07;;;;;;;17.30;1.90;;;9.90;99.90;;;;;;4950311;29;20070;-93
2022/09/17 02:13:57;;;;;;;12.27;1.58;;;9.90;99.90;;;;;;4942589;29;20039;-91
2022/09/17 02:16:29;;;;;;;8.45;1.48;;;9.80;99.90;;;;;;4945827;29;20113;-92
2022/09/17 02:19:16;;;;;;;10.88;2.13;;;9.80;99.90;;;;;;4950292;29;20051;-91
2022/09/17 02:21:48;;;;;;;14.48;1.58;;;9.70;99.90;;;;;;4948588;29;20058;-92
2022/09/17 02:24:36;;;;;;;12.25;1.85;;;9.70;99.90;;;;;;4950147;29;20050;-92
2022/09/17 02:27:14;;;;;;;9.43;1.48;;;9.60;99.90;;;;;;4932911;29;20150;-92
2022/09/17 02:29:44;;;;;;;15.48;2.00;;;9.60;99.90;;;;;;4946116;29;20698;-92
2022/09/17 02:32:11;;;;;;;13.02;1.58;;;9.50;99.90;;;;;;4950098;29;20500;-91
2022/09/17 02:34:37;;;;;;;10.02;1.48;;;9.50;99.90;;;;;;4951290;29;20484;-91
2022/09/17 02:37:04;;;;;;;14.52;1.95;;;9.50;99.90;;;;;;4950965;29;20043;-92
2022/09/17 02:39:30;;;;;;;14.07;1.50;;;9.50;99.90;;;;;;4951405;29;20036;-93
2022/09/17 02:41:58;;;;;;;15.13;1.73;;;9.50;99.90;;;;;;4944838;29;20051;-93
2022/09/17 02:44:41;;;;;;;11.88;1.50;;;9.60;99.90;;;;;;4951101;29;20175;-93
2022/09/17 02:47:19;;;;;;;8.35;1.25;;;9.60;99.90;;;;;;4950150;29;20059;-92
2022/09/17 02:49:53;;;;;;;14.77;2.00;;;9.70;99.90;;;;;;4948058;29;20078;-92
2022/09/17 02:52:56;;;;;;;9.88;1.42;;;9.80;99.90;;;;;;4944695;29;20047;-91
2022/09/17 02:55:38;;;;;;;13.23;1.70;;;9.80;99.90;;;;;;4949237;29;20089;-94
2022/09/17 02:58:15;;;;;;;11.82;1.10;;;9.80;99.90;;;;;;4945937;29;20047;-91
2022/09/17 03:00:42;;;;;;;12.32;1.58;;;10.10;99.90;;;;;;4924294;29;20054;-90
2022/09/17 03:03:16;;;;;;;10.85;2.30;;;9.70;99.90;;;;;;4932850;29;20086;-92
2022/09/17 03:05:43;;;;;;;10.52;1.95;;;9.70;99.90;;;;;;4950290;29;20047;-92
2022/09/17 03:08:13;;;;;;;13.65;1.58;;;9.80;99.90;;;;;;4950532;29;20055;-92
2022/09/17 03:10:40;;;;;;;10.02;1.30;;;9.90;99.90;;;;;;4946255;29;20066;-92
2022/09/17 03:13:05;;;;;;;13.20;1.50;;;9.80;99.90;;;;;;4949826;28;20102;-92
2022/09/17 03:15:31;;;;;;;9.20;1.67;;;9.80;99.90;;;;;;4953282;29;20051;-93
2022/09/17 03:17:57;;;;;;;8.88;1.33;;;9.80;99.90;;;;;;4955069;29;20043;-92
2022/09/17 03:20:23;;;;;;;10.27;1.45;;;10.00;99.90;;;;;;4953649;29;20040;-92
2022/09/17 03:22:50;;;;;;;10.02;1.20;;;9.80;99.90;;;;;;4948787;29;20123;-91
2022/09/17 03:25:16;;;;;;;10.60;1.65;;;9.70;99.90;;;;;;4953759;29;20110;-91
2022/09/17 03:27:41;;;;;;;11.07;1.20;;;9.70;99.90;;;;;;4954221;29;20178;-90
2022/09/17 03:30:07;;;;;;;10.95;1.17;;;9.70;99.90;;;;;;4954398;29;20416;-91
2022/09/17 03:32:35;;;;;;;11.40;1.38;;;9.70;99.90;;;;;;4936397;29;20043;-91
2022/09/17 03:35:01;;;;;;;7.72;0.88;;;9.60;99.90;;;;;;4952846;29;20492;-92
2022/09/17 03:37:27;;;;;;;9.07;1.23;;;9.60;99.90;;;;;;4952191;29;20039;-94
2022/09/17 03:39:52;;;;;;;6.88;0.95;;;9.80;99.90;;;;;;4953119;29;20065;-91
2022/09/17 03:42:18;;;;;;;10.32;1.40;;;9.50;99.90;;;;;;4953029;29;20082;-91
2022/09/17 03:44:43;;;;;;;10.55;1.05;;;9.60;99.90;;;;;;4953829;29;20043;-91
2022/09/17 03:47:09;;;;;;;10.15;1.52;;;9.60;99.90;;;;;;4936919;29;20054;-93
2022/09/17 03:49:34;;;;;;;7.93;1.25;;;9.70;99.90;;;;;;4947680;29;20046;-92
2022/09/17 03:52:00;;;;;;;6.53;0.98;;;9.80;99.90;;;;;;4952151;29;20680;-91
2022/09/17 03:54:26;;;;;;;9.20;0.90;;;9.90;99.90;;;;;;4952149;29;20102;-93
2022/09/17 03:56:51;;;;;;;11.07;1.33;;;10.00;99.90;;;;;;4949660;29;20051;-91
2022/09/17 03:59:17;;;;;;;7.13;0.77;;;10.10;99.90;;;;;;4938786;29;20512;-92
2022/09/17 04:01:42;;;;;;;13.13;1.20;;;10.10;99.90;;;;;;4951388;29;20055;-93
2022/09/17 04:04:08;;;;;;;16.10;1.65;;;10.10;99.90;;;;;;4936113;29;20051;-92
2022/09/17 04:06:34;;;;;;;6.15;1.40;;;10.10;99.90;;;;;;4959746;28;20061;-94
2022/09/17 04:08:59;;;;;;;10.80;1.40;;;10.10;99.90;;;;;;4930198;29;20063;-92
2022/09/17 04:11:26;;;;;;;11.48;1.23;;;10.00;99.90;;;;;;4937121;29;20071;-92
2022/09/17 04:13:51;;;;;;;10.02;0.88;;;9.90;99.90;;;;;;4954798;29;20046;-91
2022/09/17 04:16:17;;;;;;;12.30;1.40;;;9.90;99.90;;;;;;4936347;29;20051;-90
2022/09/17 04:18:43;;;;;;;12.95;1.30;;;9.80;99.90;;;;;;4953397;29;20079;-93
2022/09/17 04:21:09;;;;;;;9.88;1.10;;;9.70;99.90;;;;;;4952314;29;20039;-91
2022/09/17 04:23:34;;;;;;;8.50;1.63;;;9.70;99.90;;;;;;4952581;29;20043;-91
2022/09/17 04:26:00;;;;;;;8.20;1.00;;;9.60;99.90;;;;;;4952261;28;20036;-94
2022/09/17 04:28:26;;;;;;;10.82;1.67;;;9.60;99.90;;;;;;4949694;29;20090;-91
2022/09/17 04:30:51;;;;;;;9.65;1.35;;;9.50;99.90;;;;;;4942312;29;20126;-92
2022/09/17 04:33:17;;;;;;;10.05;1.42;;;9.50;99.90;;;;;;4953098;29;20075;-91
2022/09/17 04:35:42;;;;;;;14.80;1.52;;;9.40;99.90;;;;;;4953121;29;20051;-93
2022/09/17 04:38:08;;;;;;;9.65;1.67;;;9.30;99.90;;;;;;4953097;29;20035;-93
2022/09/17 04:40:34;;;;;;;12.13;1.65;;;9.30;99.90;;;;;;4951016;29;20046;-93
2022/09/17 04:43:01;;;;;;;13.80;1.63;;;9.20;99.90;;;;;;4948984;29;20036;-91
2022/09/17 04:45:28;;;;;;;9.82;1.42;;;9.20;99.90;;;;;;4951380;29;20067;-93
2022/09/17 04:47:54;;;;;;;10.98;1.30;;;9.20;99.90;;;;;;4943924;29;20143;-92
2022/09/17 04:50:20;;;;;;;10.73;1.48;;;9.10;99.90;;;;;;4953814;29;20672;-92
2022/09/17 04:52:47;;;;;;;10.45;1.38;;;9.10;99.90;;;;;;4953125;29;20051;-93
2022/09/17 04:55:14;;;;;;;8.88;1.23;;;9.10;99.90;;;;;;4954071;29;20046;-93
2022/09/17 04:57:46;;;;;;;13.93;1.70;;;9.10;99.90;;;;;;4952952;29;20039;-92
2022/09/17 05:00:12;;;;;;;8.88;1.33;;;9.10;99.90;;;;;;4945273;29;20094;-92
2022/09/17 05:02:37;;;;;;;9.88;1.33;;;9.10;99.90;;;;;;4941653;29;20050;-91
2022/09/17 05:05:03;;;;;;;9.65;1.05;;;9.00;99.90;;;;;;4950798;28;20051;-93
2022/09/17 05:07:29;;;;;;;10.43;1.30;;;9.00;99.90;;;;;;4945998;29;20090;-92
2022/09/17 05:09:54;;;;;;;11.70;1.58;;;9.00;99.90;;;;;;4953923;29;20094;-92
2022/09/17 05:12:20;;;;;;;13.10;1.77;;;9.00;99.90;;;;;;4953399;29;20502;-93
2022/09/17 05:14:45;;;;;;;9.50;1.10;;;9.00;99.90;;;;;;4946018;29;20050;-93
2022/09/17 05:17:11;;;;;;;12.48;1.33;;;8.90;99.90;;;;;;4953037;29;20126;-92
2022/09/17 05:19:37;;;;;;;9.32;1.40;;;8.90;99.90;;;;;;4952255;29;20500;-94
2022/09/17 05:22:02;;;;;;;14.27;1.40;;;8.90;99.90;;;;;;4948283;29;20043;-87
2022/09/17 05:24:28;;;;;;;14.77;1.63;;;8.90;99.90;;;;;;4949777;29;20070;-87
2022/09/17 05:26:53;;;;;;;14.00;1.60;;;8.90;99.90;;;;;;4945583;29;20441;-89
2022/09/17 05:29:19;;;;;;;9.07;1.40;;;8.90;99.90;;;;;;4942674;29;20089;-87
2022/09/17 05:31:45;;;;;;;12.98;1.58;;;9.00;99.90;;;;;;4948919;29;20051;-86
2022/09/17 05:34:10;;;;;;;12.65;1.55;;;9.00;99.90;;;;;;4948383;29;20031;-89
2022/09/17 05:36:36;;;;;;;12.65;1.67;;;9.00;99.90;;;;;;4936129;29;20085;-86
2022/09/17 05:39:02;;;;;;;12.07;1.85;;;9.10;99.90;;;;;;4945525;28;20050;-87
2022/09/17 05:41:27;;;;;;;12.70;1.58;;;9.20;99.90;;;;;;4950162;29;20472;-87
2022/09/17 05:43:53;;;;;;;15.35;1.60;;;9.30;99.90;;;;;;4948223;29;20122;-86
2022/09/17 05:46:19;;;;;;;10.52;1.50;;;9.40;99.90;;;;;;4933086;29;20039;-87
2022/09/17 05:48:44;;;;;;;10.85;1.38;;;9.60;99.90;;;;;;4931304;29;20048;-88
2022/09/17 05:51:10;;;;;;;10.05;1.52;;;9.70;99.90;;;;;;4948227;29;20039;-90
2022/09/17 05:53:36;;;;;;;9.13;1.80;;;9.90;99.90;;;;;;4947948;28;20508;-91
2022/09/17 05:56:02;;;;;;;12.10;1.63;;;10.00;99.90;;;;;;4932357;29;20047;-90
2022/09/17 05:58:28;;;;;;;10.20;1.38;;;10.20;99.90;;;;;;4933489;29;20672;-93
2022/09/17 06:00:53;;;;;;;9.48;1.08;;;10.30;99.90;;;;;;4933107;29;20134;-92
2022/09/17 06:03:21;;;;;;;8.13;1.10;;;10.30;99.90;;;;;;4929679;29;20063;-90
2022/09/17 06:05:58;;;;;;;10.25;1.50;;;10.40;99.90;;;;;;4942041;28;20066;-90
2022/09/17 06:08:25;;;;;;;8.00;0.90;;;10.40;99.90;;;;;;4946894;29;20050;-93
2022/09/17 06:10:51;;;;;;;6.22;0.80;;;10.40;99.90;;;;;;4951621;29;20051;-94
2022/09/17 06:13:17;;;;;;;6.28;0.63;;;10.50;99.90;;;;;;4933872;29;20118;-93
2022/09/17 06:15:49;;;;;;;8.02;1.05;;;10.40;99.90;;;;;;4950415;29;20058;-91
2022/09/17 06:18:14;;;;;;;7.22;1.05;;;10.50;99.90;;;;;;4949871;29;20047;-91
2022/09/17 06:20:40;;;;;;;5.53;1.15;;;10.40;99.90;;;;;;4931405;29;20062;-91
2022/09/17 06:23:06;;;;;;;8.80;1.33;;;10.40;99.90;;;;;;4942654;28;20035;-91
2022/09/17 06:25:31;;;;;;;7.05;1.02;;;10.30;99.90;;;;;;4942077;29;20074;-92
2022/09/17 06:27:57;;;;;;;7.88;0.90;;;10.30;99.90;;;;;;4948965;29;20054;-91
2022/09/17 06:30:22;;;;;;;5.43;0.85;;;10.30;99.90;;;;;;4928005;29;20396;-91
2022/09/17 06:32:48;;;;;;;7.90;1.35;;;10.30;99.90;;;;;;4932405;29;20043;-90
2022/09/17 06:35:14;;;;;;;4.70;0.70;;;10.20;99.90;;;;;;4931922;29;20043;-90
2022/09/17 06:37:40;;;;;;;9.25;0.85;;;10.10;99.90;;;;;;4932421;29;21753;-91
2022/09/17 06:40:07;;;;;;;10.23;0.88;;;10.00;99.90;;;;;;4932418;29;20047;-90
2022/09/17 06:42:32;;;;;;;6.30;0.90;;;10.00;99.90;;;;;;4949135;29;20039;-88
2022/09/17 06:44:58;;;;;;;7.32;0.93;;;9.90;99.90;;;;;;4931441;29;20461;-89
2022/09/17 06:47:24;;;;;;;8.10;0.90;;;9.90;99.90;;;;;;4949091;29;20039;-90
2022/09/17 06:49:50;;;;;;;5.43;0.90;;;9.90;99.90;;;;;;4934780;29;20110;-90
2022/09/17 06:52:16;;;;;;;11.57;2.80;;;9.90;99.90;;;;;;4935940;29;20043;-90
2022/09/17 06:54:41;;;;;;;3.97;0.90;;;10.10;99.90;;;;;;4954442;29;20054;-91
2022/09/17 06:57:07;;;;;;;5.93;1.10;;;10.20;99.90;;;;;;4936550;29;20057;-90
2022/09/17 06:59:32;;;;;;;7.70;0.70;;;10.20;99.90;;;;;;4937228;29;20043;-91
2022/09/17 07:01:58;;;;;;;4.80;0.98;;;10.30;99.90;;;;;;4953530;29;20051;-91
2022/09/17 07:04:24;;;;;;;5.00;1.08;;;10.30;99.90;;;;;;4941167;29;20048;-89
2022/09/17 07:06:49;;;;;;;6.43;0.70;;;10.30;99.90;;;;;;4950465;29;20056;-87
2022/09/17 07:09:15;;;;;;;3.45;0.75;;;10.30;99.90;;;;;;4935449;29;20042;-87
2022/09/17 07:11:40;;;;;;;6.43;0.85;;;10.30;99.90;;;;;;4934828;29;20154;-87
2022/09/17 07:14:06;;;;;;;5.82;0.60;;;10.20;99.90;;;;;;4952751;29;20057;-88
2022/09/17 07:16:34;;;;;;;4.70;1.00;;;10.20;99.90;;;;;;4952768;29;20175;-87
2022/09/17 07:19:01;;;;;;;7.32;0.95;;;10.20;99.90;;;;;;4935291;29;20047;-88
2022/09/17 07:21:27;;;;;;;7.93;0.95;;;10.30;99.90;;;;;;4952259;29;20427;-89
2022/09/17 07:23:52;;;;;;;11.23;1.10;;;10.20;99.90;;;;;;4952240;29;20051;-88
2022/09/17 07:26:18;;;;;;;8.13;0.85;;;10.30;99.90;;;;;;4952621;29;20053;-87
2022/09/17 07:28:44;;;;;;;7.28;0.80;;;10.40;99.90;;;;;;4952285;29;20046;-88
2022/09/17 07:31:10;;;;;;;9.55;0.93;;;10.50;99.90;;;;;;4951008;29;20058;-87
2022/09/17 07:33:37;;;;;;;7.88;1.05;;;10.60;99.90;;;;;;4933838;29;20512;-88
2022/09/17 07:36:05;;;;;;;11.30;0.93;;;10.60;99.90;;;;;;4952433;29;20500;-88
2022/09/17 07:38:32;;;;;;;7.60;1.50;;;10.70;99.90;;;;;;4951471;29;20380;-89
2022/09/17 07:41:01;;;;;;;9.52;0.93;;;10.70;99.90;;;;;;4952131;29;20515;-88
2022/09/17 07:43:28;;;;;;;8.77;1.08;;;10.70;99.90;;;;;;4951781;29;20043;-88
2022/09/17 07:45:56;;;;;;;8.82;1.13;;;10.80;99.90;;;;;;4935342;29;20050;-87
2022/09/17 07:48:23;;;;;;;10.15;1.00;;;10.80;99.90;;;;;;4951384;29;20056;-88
2022/09/17 07:50:49;;;;;;;11.45;1.25;;;10.80;99.90;;;;;;4934423;29;20090;-88
2022/09/17 07:53:14;;;;;;;7.85;0.98;;;10.90;99.90;;;;;;4951245;28;20047;-91
2022/09/17 07:55:40;;;;;;;8.13;0.80;;;11.00;99.90;;;;;;4932779;29;20419;-89
2022/09/17 07:58:06;;;;;;;9.68;1.30;;;11.00;99.90;;;;;;4950847;29;20057;-88
2022/09/17 08:00:31;;;;;;;10.55;1.20;;;11.10;99.90;;;;;;4949106;28;20051;-88
2022/09/17 08:02:59;;;;;;;9.10;0.95;;;11.10;99.90;;;;;;4934582;29;20051;-86
2022/09/17 08:05:25;;;;;;;12.18;1.20;;;11.20;99.90;;;;;;4951333;29;20048;-88
2022/09/17 08:07:52;;;;;;;11.70;1.58;;;11.30;99.90;;;;;;4951844;29;20047;-89
2022/09/17 08:10:21;;;;;;;6.78;1.38;;;11.50;99.90;;;;;;4951689;29;20097;-89
2022/09/17 08:12:54;;;;;;;5.63;0.90;;;11.60;99.90;;;;;;4951379;29;20065;-89
2022/09/17 08:15:19;;;;;;;6.75;1.25;;;11.70;99.90;;;;;;4950601;29;20047;-89
2022/09/17 08:17:46;;;;;;;9.05;1.00;;;11.80;99.90;;;;;;4951838;29;20042;-95
2022/09/17 08:20:13;;;;;;;8.65;1.30;;;11.80;99.90;;;;;;4952382;29;20050;-90
2022/09/17 08:22:39;;;;;;;10.45;1.30;;;11.90;99.90;;;;;;4950970;29;20042;-89
2022/09/17 08:25:05;;;;;;;6.38;0.85;;;11.90;99.90;;;;;;4951032;29;20043;-91
2022/09/17 08:27:31;;;;;;;7.72;1.25;;;11.80;99.90;;;;;;4951563;29;20134;-92
2022/09/17 08:29:57;;;;;;;5.80;0.75;;;11.70;99.90;;;;;;4950416;29;20054;-93
2022/09/17 08:32:24;;;;;;;5.05;0.50;;;11.60;99.90;;;;;;4933966;28;20035;-91
2022/09/17 08:34:49;;;;;;;6.82;0.85;;;11.50;99.90;;;;;;4950838;28;20791;-90
2022/09/17 08:37:15;;;;;;;9.75;0.93;;;11.30;99.90;;;;;;4933915;29;20042;-91
2022/09/17 08:39:41;;;;;;;7.88;1.10;;;11.20;99.90;;;;;;4950203;29;20114;-89
2022/09/17 08:42:30;;;;;;;6.90;0.95;;;11.10;99.90;;;;;;4948052;29;20074;-87
2022/09/17 08:44:56;;;;;;;8.30;0.90;;;11.10;99.90;;;;;;4949136;29;20076;-87
2022/09/17 08:47:35;;;;;;;6.35;1.60;;;11.10;99.90;;;;;;4933041;29;20134;-89
2022/09/17 08:50:04;;;;;;;13.52;1.35;;;11.30;99.90;;;;;;4930929;29;20119;-89
2022/09/17 08:52:48;;;;;;;9.18;1.52;;;11.40;99.90;;;;;;4950393;29;20102;-87
2022/09/17 08:55:30;;;;;;;7.95;0.98;;;11.40;99.90;;;;;;4951239;28;20047;-89
2022/09/17 08:58:32;;;;;;;9.68;1.17;;;11.50;99.90;;;;;;4949258;29;20074;-89
2022/09/17 09:01:26;;;;;;;6.63;1.00;;;11.70;99.90;;;;;;4929906;29;20058;-90
2022/09/17 09:04:02;;;;;;;5.10;1.08;;;12.10;99.90;;;;;;4931596;29;20476;-88
2022/09/17 09:06:34;;;;;;;6.85;1.00;;;12.20;99.90;;;;;;4949869;29;20047;-89
2022/09/17 09:09:04;;;;;;;7.80;1.00;;;12.30;99.90;;;;;;4933216;28;20539;-88
2022/09/17 09:11:30;;;;;;;7.43;1.42;;;12.30;99.90;;;;;;4949840;28;20436;-87
2022/09/17 09:14:08;;;;;;;10.18;1.50;;;12.30;99.90;;;;;;4948807;29;20047;-88
2022/09/17 09:16:40;;;;;;;10.57;1.05;;;12.30;99.90;;;;;;4946250;29;20122;-87
2022/09/17 09:19:23;;;;;;;10.70;1.38;;;12.20;99.90;;;;;;4951210;29;20047;-87
2022/09/17 09:21:52;;;;;;;9.50;1.30;;;12.20;99.90;;;;;;4945931;29;20043;-88
2022/09/17 09:24:25;;;;;;;5.28;1.15;;;12.30;99.90;;;;;;4950805;29;20570;-89
2022/09/17 09:27:02;;;;;;;8.32;1.05;;;12.50;99.90;;;;;;4948702;28;20047;-90
2022/09/17 09:29:45;;;;;;;5.57;0.80;;;12.60;99.90;;;;;;4948592;29;20035;-91
2022/09/17 09:32:42;;;;;;;8.20;1.20;;;12.60;99.90;;;;;;4944672;29;20051;-92
2022/09/17 09:35:18;;;;;;;7.85;1.02;;;12.40;99.90;;;;;;4949858;29;20050;-92
2022/09/17 09:37:53;;;;;;;10.13;1.55;;;12.30;99.90;;;;;;4954841;29;20051;-91
2022/09/17 09:40:42;;;;;;;7.55;1.63;;;12.20;99.90;;;;;;4955756;29;20066;-91
2022/09/17 09:43:28;;;;;;;8.02;1.20;;;12.20;99.90;;;;;;4946323;29;20125;-90
2022/09/17 09:46:08;;;;;;;6.20;1.25;;;12.40;99.90;;;;;;4954921;29;20051;-92
2022/09/17 09:49:05;;;;;;;10.48;1.30;;;12.70;99.90;;;;;;4937325;29;20047;-91
2022/09/17 09:51:59;;;;;;;7.43;0.88;;;12.70;99.90;;;;;;4933813;29;20039;-91
2022/09/17 09:54:32;;;;;;;6.88;1.38;;;12.50;99.90;;;;;;4954272;29;20043;-89
2022/09/17 09:57:06;;;;;;;8.65;0.85;;;12.20;99.90;;;;;;4953584;29;20094;-89
2022/09/17 09:59:32;;;;;;;8.90;1.15;;;12.00;99.90;;;;;;4953667;29;20067;-90
2022/09/17 10:01:58;;;;;;;7.65;1.20;;;11.90;99.90;;;;;;4953921;29;20578;-91
2022/09/17 10:04:27;;;;;;;9.57;1.00;;;11.90;99.90;;;;;;4958349;28;20050;-91
2022/09/17 10:07:05;;;;;;;7.32;1.30;;;11.90;99.90;;;;;;4938694;29;20051;-91
2022/09/17 10:09:33;;;;;;;8.65;0.90;;;12.20;99.90;;;;;;4950006;29;20067;-91
2022/09/17 10:12:15;;;;;;;9.52;1.10;;;12.30;99.90;;;;;;4946526;29;20048;-90
2022/09/17 10:14:43;;;;;;;9.23;1.27;;;12.40;99.90;;;;;;4948694;29;20405;-91
2022/09/17 10:17:18;;;;;;;10.20;1.30;;;12.60;99.90;;;;;;4955256;28;20054;-90
2022/09/17 10:19:44;;;;;;;9.18;1.20;;;12.90;99.90;;;;;;4937558;29;20055;-90
2022/09/17 10:22:34;;;;;;;9.20;1.35;;;13.20;99.90;;;;;;4959795;29;20043;-91
2022/09/17 10:25:01;;;;;;;14.52;1.25;;;13.50;99.90;;;;;;4950715;29;20092;-90
2022/09/17 10:27:28;;;;;;;9.23;1.20;;;13.80;99.90;;;;;;4938374;29;20035;-90
2022/09/17 10:30:09;;;;;;;9.60;1.42;;;14.00;99.90;;;;;;4962185;28;20046;-91
2022/09/17 10:32:35;;;;;;;6.93;0.77;;;14.20;99.90;;;;;;4959164;29;20055;-90
2022/09/17 10:35:06;;;;;;;10.80;1.17;;;14.30;99.90;;;;;;4957812;29;20043;-91
2022/09/17 10:37:45;;;;;;;9.65;1.80;;;14.30;99.90;;;;;;4942196;29;20372;-90
2022/09/17 10:40:19;;;;;;;5.88;1.00;;;14.20;99.90;;;;;;4948040;29;20044;-91
2022/09/17 10:42:45;;;;;;;;;;;14.20;99.90;;;;;;4963858;28;20047;-93
2022/09/17 10:45:27;;;;;;;10.23;1.30;;;13.80;99.90;;;;;;4961082;29;20017;-93
2022/09/17 10:47:55;;;;;;;10.85;1.00;;;13.60;99.90;;;;;;4944584;29;20110;-94
2022/09/17 10:50:33;;;;;;;10.73;1.50;;;13.30;99.90;;;;;;4957312;29;20036;-93
2022/09/17 10:53:05;;;;;;;7.82;0.90;;;13.20;99.90;;;;;;4960443;28;20396;-94
2022/09/17 10:55:36;;;;;;;9.45;1.17;;;13.00;99.90;;;;;;4954650;28;20039;-92
2022/09/17 10:58:07;;;;;;;9.18;1.85;;;13.00;99.90;;;;;;4935327;29;20055;-93
2022/09/17 11:00:48;;;;;;;9.68;1.48;;;12.90;99.90;;;;;;4951467;28;20121;-92
2022/09/17 11:03:13;;;;;;;9.18;1.27;;;12.80;99.90;;;;;;4944703;29;20381;-92
2022/09/17 11:06:02;;;;;;;6.93;1.10;;;12.90;99.90;;;;;;4949851;29;20050;-92
2022/09/17 11:08:42;;;;;;;6.97;1.30;;;13.00;99.90;;;;;;4932235;29;20086;-93
2022/09/17 11:11:28;;;;;;;13.60;1.27;;;13.10;99.90;;;;;;4949720;29;20043;-93
2022/09/17 11:14:09;;;;;;;9.02;1.40;;;13.00;99.90;;;;;;4933581;29;20047;-89
2022/09/17 11:16:39;;;;;;;11.27;1.20;;;12.90;99.90;;;;;;4948159;29;20052;-93
2022/09/17 11:19:13;;;;;;;12.98;2.10;;;12.80;99.90;;;;;;4928971;29;20453;-92
2022/09/17 11:21:51;;;;;;;10.90;1.70;;;12.90;99.90;;;;;;4941902;29;20047;-91
2022/09/17 11:24:23;;;;;;;9.80;1.30;;;13.10;99.90;;;;;;4949428;29;20038;-92
2022/09/17 11:26:59;;;;;;;11.45;1.50;;;13.40;99.90;;;;;;4943080;29;20091;-91
2022/09/17 11:30:00;;;;;;;10.27;1.50;;;13.70;99.90;;;;;;4949542;29;20115;-91
2022/09/17 11:32:53;;;;;;;10.95;1.20;;;14.00;99.90;;;;;;4947655;29;20115;-89
2022/09/17 11:35:21;;;;;;;7.32;1.30;;;14.00;99.90;;;;;;4929458;29;20126;-90
2022/09/17 11:38:27;;;;;;;8.73;1.45;;;13.90;99.90;;;;;;4951439;29;20051;-86
2022/09/17 11:41:25;;;;;;;14.32;1.90;;;13.80;99.90;;;;;;4951237;29;20051;-89
2022/09/17 11:44:23;;;;;;;11.55;1.58;;;13.80;99.90;;;;;;4953048;29;20150;-94
2022/09/17 11:46:55;;;;;;;9.43;1.73;;;13.80;99.90;;;;;;4940845;29;20408;-92
2022/09/17 11:49:59;;;;;;;11.35;1.20;;;13.80;99.90;;;;;;4949467;29;20065;-93
2022/09/17 11:52:50;;;;;;;15.68;1.90;;;13.60;99.90;;;;;;4950519;29;20031;-92
2022/09/17 11:55:22;;;;;;;13.75;1.45;;;14.10;99.90;;;;;;4950769;29;20067;-95
2022/09/17 11:57:52;;;;;;;11.07;1.50;;;14.40;99.90;;;;;;4952923;28;20485;-93
2022/09/17 12:00:21;;;;;;;9.88;1.30;;;14.70;99.90;;;;;;4937125;29;20054;-93
2022/09/17 12:02:57;;;;;;;9.95;1.83;;;15.00;99.90;;;;;;4944950;29;20051;-93
2022/09/17 12:05:33;;;;;;;8.73;1.83;;;15.10;99.90;;;;;;4948915;28;20086;-94
2022/09/17 12:08:37;;;;;;;17.13;1.85;;;15.10;99.90;;;;;;4948985;29;20042;-94
2022/09/17 12:11:18;;;;;;;10.38;1.55;;;15.00;99.90;;;;;;4912517;29;20143;-91
2022/09/17 12:13:53;;;;;;;14.93;1.75;;;14.90;99.90;;;;;;4912387;29;20055;-93
2022/09/17 12:16:26;;;;;;;14.85;2.50;;;14.80;99.90;;;;;;4914214;29;20096;-92
2022/09/17 12:19:00;;;;;;;9.52;1.50;;;14.80;99.90;;;;;;4909438;29;20143;-94
2022/09/17 12:21:46;;;;;;;12.60;1.77;;;14.80;99.90;;;;;;4913584;29;20595;-94
2022/09/17 12:24:31;;;;;;;10.95;1.90;;;15.10;99.90;;;;;;4897885;29;21009;-93
2022/09/17 12:27:34;;;;;;;11.55;1.60;;;15.20;99.90;;;;;;4912850;29;20128;-93
2022/09/17 12:30:05;;;;;;;11.45;1.50;;;15.40;99.90;;;;;;4913019;29;20063;-92
2022/09/17 12:33:07;;;;;;;9.05;1.67;;;15.60;99.90;;;;;;4897269;29;20186;-93
2022/09/17 12:35:49;;;;;;;9.77;1.42;;;15.70;99.90;;;;;;4894360;29;20571;-91
2022/09/17 12:38:36;;;;;;;11.70;1.70;;;15.60;99.90;;;;;;4898145;29;20115;-92
2022/09/17 12:41:28;;;;;;;9.25;1.20;;;15.60;99.90;;;;;;4897857;29;20860;-92
2022/09/17 12:44:17;;;;;;;9.02;1.38;;;15.80;99.90;;;;;;4896506;29;20111;-92
2022/09/17 12:46:55;;;;;;;11.15;1.48;;;15.80;99.90;;;;;;4914358;29;20099;-93
2022/09/17 12:49:44;;;;;;;13.23;2.00;;;15.80;99.90;;;;;;4946199;29;20464;-95
2022/09/17 12:52:43;;;;;;;11.65;1.77;;;15.80;99.90;;;;;;4949046;28;20047;-92
2022/09/17 12:55:26;;;;;;;9.02;1.25;;;15.80;99.90;;;;;;4951330;29;20492;-94
2022/09/17 12:58:07;;;;;;;9.73;1.42;;;15.70;99.90;;;;;;4947103;29;20058;-94
2022/09/17 13:00:43;;;;;;;11.02;1.75;;;15.70;99.90;;;;;;4929637;29;20055;-91
2022/09/17 13:03:23;;;;;;;12.38;1.70;;;15.80;99.90;;;;;;4932717;28;20704;-92
2022/09/17 13:05:59;;;;;;;15.48;1.80;;;16.10;99.90;;;;;;4915197;29;20090;-90
2022/09/17 13:08:46;;;;;;;10.52;1.25;;;16.40;99.90;;;;;;4935336;29;20046;-94
2022/09/17 13:11:18;;;;;;;10.60;1.30;;;16.40;99.90;;;;;;4925546;29;20402;-93
2022/09/17 13:13:49;;;;;;;9.20;1.70;;;16.20;99.90;;;;;;4916772;29;20047;-91